sensor_id;sensor_type;location;lat;lon;timestamp;pressure;altitude;pressure_sealevel;temperature;humidity
68889;BME280;55930;47.412;8.790;2023-04-28T00:02:05;94463.63;;;9.97;100.00
68889;BME280;55930;47.412;8.790;2023-04-28T00:05:27;94455.84;;;10.08;100.00
68889;BME280;55930;47.412;8.790;2023-04-28T00:08:48;94459.31;;;10.14;100.00
68889;BME280;55930;47.412;8.790;2023-04-28T00:12:08;94471.69;;;10.17;100.00
68889;BME280;55930;47.412;8.790;2023-04-28T00:15:29;94464.38;;;10.12;100.00
68889;BME280;55930;47.412;8.790;2023-04-28T00:18:49;94465.63;;;10.17;100.00
68889;BME280;55930;47.412;8.790;2023-04-28T00:22:10;94456.34;;;10.21;100.00
68889;BME280;55930;47.412;8.790;2023-04-28T00:25:30;94454.50;;;10.27;100.00
68889;BME280;55930;47.412;8.790;2023-04-28T00:28:51;94448.47;;;10.27;100.00
68889;BME280;55930;47.412;8.790;2023-04-28T00:32:11;94446.84;;;10.29;100.00
68889;BME280;55930;47.412;8.790;2023-04-28T00:35:32;94443.47;;;10.29;100.00
68889;BME280;55930;47.412;8.790;2023-04-28T00:38:53;94445.28;;;10.38;100.00
68889;BME280;55930;47.412;8.790;2023-04-28T00:42:14;94447.19;;;10.37;100.00
68889;BME280;55930;47.412;8.790;2023-04-28T00:45:34;94446.09;;;10.44;100.00
68889;BME280;55930;47.412;8.790;2023-04-28T00:48:55;94447.16;;;10.52;100.00
68889;BME280;55930;47.412;8.790;2023-04-28T00:52:16;94443.78;;;10.51;100.00
68889;BME280;55930;47.412;8.790;2023-04-28T00:55:39;94432.53;;;10.56;100.00
68889;BME280;55930;47.412;8.790;2023-04-28T00:59:00;94433.25;;;10.57;100.00
68889;BME280;55930;47.412;8.790;2023-04-28T01:02:20;94432.00;;;10.52;100.00
68889;BME280;55930;47.412;8.790;2023-04-28T01:05:40;94435.00;;;10.60;100.00
68889;BME280;55930;47.412;8.790;2023-04-28T01:09:01;94428.13;;;10.68;100.00
68889;BME280;55930;47.412;8.790;2023-04-28T01:12:22;94419.78;;;10.95;100.00
68889;BME280;55930;47.412;8.790;2023-04-28T01:15:45;94419.19;;;11.06;100.00
68889;BME280;55930;47.412;8.790;2023-04-28T01:19:16;94430.25;;;11.04;100.00
68889;BME280;55930;47.412;8.790;2023-04-28T01:22:39;94421.50;;;11.19;100.00
68889;BME280;55930;47.412;8.790;2023-04-28T01:26:00;94410.97;;;11.24;100.00
68889;BME280;55930;47.412;8.790;2023-04-28T01:29:20;94417.00;;;11.25;100.00
68889;BME280;55930;47.412;8.790;2023-04-28T01:32:41;94423.22;;;11.42;100.00
68889;BME280;55930;47.412;8.790;2023-04-28T01:36:01;94422.47;;;11.41;100.00
68889;BME280;55930;47.412;8.790;2023-04-28T01:39:24;94426.72;;;11.54;100.00
68889;BME280;55930;47.412;8.790;2023-04-28T01:42:44;94444.41;;;11.57;100.00
68889;BME280;55930;47.412;8.790;2023-04-28T01:46:05;94457.47;;;11.80;97.35
68889;BME280;55930;47.412;8.790;2023-04-28T01:49:25;94475.16;;;11.63;100.00
68889;BME280;55930;47.412;8.790;2023-04-28T01:52:46;94488.84;;;11.76;98.16
68889;BME280;55930;47.412;8.790;2023-04-28T01:56:06;94479.00;;;11.62;100.00
68889;BME280;55930;47.412;8.790;2023-04-28T01:59:29;94472.78;;;11.25;100.00
68889;BME280;55930;47.412;8.790;2023-04-28T02:02:49;94472.34;;;11.11;100.00
68889;BME280;55930;47.412;8.790;2023-04-28T02:06:10;94467.81;;;10.97;100.00
68889;BME280;55930;47.412;8.790;2023-04-28T02:09:31;94459.41;;;10.99;100.00
68889;BME280;55930;47.412;8.790;2023-04-28T02:12:51;94453.09;;;10.96;100.00
68889;BME280;55930;47.412;8.790;2023-04-28T02:16:14;94429.53;;;10.84;100.00
68889;BME280;55930;47.412;8.790;2023-04-28T02:19:37;94425.25;;;10.71;100.00
68889;BME280;55930;47.412;8.790;2023-04-28T02:22:59;94428.28;;;10.64;100.00
68889;BME280;55930;47.412;8.790;2023-04-28T02:26:20;94437.66;;;10.60;100.00
68889;BME280;55930;47.412;8.790;2023-04-28T02:29:40;94444.66;;;10.63;100.00
68889;BME280;55930;47.412;8.790;2023-04-28T02:33:01;94454.00;;;10.58;100.00
68889;BME280;55930;47.412;8.790;2023-04-28T02:36:21;94451.31;;;10.73;100.00
68889;BME280;55930;47.412;8.790;2023-04-28T02:39:42;94454.81;;;10.64;100.00
68889;BME280;55930;47.412;8.790;2023-04-28T02:43:02;94436.19;;;10.59;100.00
68889;BME280;55930;47.412;8.790;2023-04-28T02:46:23;94432.69;;;10.67;100.00
68889;BME280;55930;47.412;8.790;2023-04-28T02:49:43;94452.06;;;10.73;100.00
68889;BME280;55930;47.412;8.790;2023-04-28T02:53:03;94444.41;;;10.61;100.00
68889;BME280;55930;47.412;8.790;2023-04-28T02:56:26;94450.13;;;10.74;100.00
68889;BME280;55930;47.412;8.790;2023-04-28T02:59:49;94434.44;;;10.91;100.00
68889;BME280;55930;47.412;8.790;2023-04-28T03:03:09;94426.81;;;10.63;100.00
68889;BME280;55930;47.412;8.790;2023-04-28T03:06:30;94431.34;;;10.78;100.00
68889;BME280;55930;47.412;8.790;2023-04-28T03:09:53;94444.44;;;10.81;100.00
68889;BME280;55930;47.412;8.790;2023-04-28T03:13:13;94450.63;;;10.93;100.00
68889;BME280;55930;47.412;8.790;2023-04-28T03:16:34;94461.03;;;10.76;100.00
68889;BME280;55930;47.412;8.790;2023-04-28T03:19:54;94475.28;;;10.79;100.00
68889;BME280;55930;47.412;8.790;2023-04-28T03:23:15;94479.00;;;10.87;100.00
68889;BME280;55930;47.412;8.790;2023-04-28T03:26:35;94470.91;;;10.76;100.00
68889;BME280;55930;47.412;8.790;2023-04-28T03:29:56;94455.16;;;10.72;100.00
68889;BME280;55930;47.412;8.790;2023-04-28T03:33:16;94460.59;;;10.63;100.00
68889;BME280;55930;47.412;8.790;2023-04-28T03:36:37;94477.16;;;10.58;100.00
68889;BME280;55930;47.412;8.790;2023-04-28T03:39:57;94475.91;;;10.53;100.00
68889;BME280;55930;47.412;8.790;2023-04-28T03:43:20;94468.13;;;10.50;100.00
68889;BME280;55930;47.412;8.790;2023-04-28T03:46:40;94470.38;;;10.57;100.00
68889;BME280;55930;47.412;8.790;2023-04-28T03:50:01;94456.94;;;10.46;100.00
68889;BME280;55930;47.412;8.790;2023-04-28T03:53:22;94458.16;;;10.45;100.00
68889;BME280;55930;47.412;8.790;2023-04-28T03:56:43;94447.28;;;10.43;100.00
68889;BME280;55930;47.412;8.790;2023-04-28T04:00:04;94446.34;;;10.31;100.00
68889;BME280;55930;47.412;8.790;2023-04-28T04:03:24;94450.75;;;10.34;100.00
68889;BME280;55930;47.412;8.790;2023-04-28T04:06:46;94453.13;;;10.32;100.00
68889;BME280;55930;47.412;8.790;2023-04-28T04:10:09;94443.09;;;10.21;100.00
68889;BME280;55930;47.412;8.790;2023-04-28T04:13:29;94457.81;;;10.37;100.00
68889;BME280;55930;47.412;8.790;2023-04-28T04:16:49;94458.88;;;10.30;100.00
68889;BME280;55930;47.412;8.790;2023-04-28T04:20:10;94465.84;;;10.28;100.00
68889;BME280;55930;47.412;8.790;2023-04-28T04:23:30;94456.88;;;10.25;100.00
68889;BME280;55930;47.412;8.790;2023-04-28T04:26:51;94467.13;;;10.32;100.00
68889;BME280;55930;47.412;8.790;2023-04-28T04:30:11;94461.09;;;10.17;100.00
68889;BME280;55930;47.412;8.790;2023-04-28T04:33:32;94464.56;;;10.23;100.00
68889;BME280;55930;47.412;8.790;2023-04-28T04:36:53;94461.00;;;10.26;100.00
68889;BME280;55930;47.412;8.790;2023-04-28T04:40:16;94470.41;;;10.27;100.00
68889;BME280;55930;47.412;8.790;2023-04-28T04:43:36;94471.88;;;10.28;100.00
68889;BME280;55930;47.412;8.790;2023-04-28T04:46:57;94468.69;;;10.24;100.00
68889;BME280;55930;47.412;8.790;2023-04-28T04:50:19;94482.75;;;10.30;100.00
68889;BME280;55930;47.412;8.790;2023-04-28T04:53:41;94477.09;;;10.23;100.00
68889;BME280;55930;47.412;8.790;2023-04-28T04:57:02;94473.81;;;10.28;100.00
68889;BME280;55930;47.412;8.790;2023-04-28T05:00:23;94474.63;;;10.34;100.00
68889;BME280;55930;47.412;8.790;2023-04-28T05:03:43;94479.34;;;10.30;100.00
68889;BME280;55930;47.412;8.790;2023-04-28T05:07:03;94485.41;;;10.30;100.00
68889;BME280;55930;47.412;8.790;2023-04-28T05:10:29;94485.16;;;10.28;100.00
68889;BME280;55930;47.412;8.790;2023-04-28T05:13:52;94488.88;;;10.37;100.00
68889;BME280;55930;47.412;8.790;2023-04-28T05:17:12;94483.97;;;10.29;100.00
68889;BME280;55930;47.412;8.790;2023-04-28T05:20:32;94492.38;;;10.28;100.00
68889;BME280;55930;47.412;8.790;2023-04-28T05:23:53;94501.31;;;10.30;100.00
68889;BME280;55930;47.412;8.790;2023-04-28T05:27:13;94503.78;;;10.34;100.00
68889;BME280;55930;47.412;8.790;2023-04-28T05:30:33;94497.91;;;10.30;100.00
68889;BME280;55930;47.412;8.790;2023-04-28T05:33:54;94513.13;;;10.29;100.00
68889;BME280;55930;47.412;8.790;2023-04-28T05:37:14;94503.69;;;10.28;100.00
68889;BME280;55930;47.412;8.790;2023-04-28T05:40:34;94506.16;;;10.32;100.00
68889;BME280;55930;47.412;8.790;2023-04-28T05:43:55;94506.59;;;10.30;100.00
68889;BME280;55930;47.412;8.790;2023-04-28T05:47:15;94523.72;;;10.29;100.00
68889;BME280;55930;47.412;8.790;2023-04-28T05:50:36;94525.44;;;10.32;100.00
68889;BME280;55930;47.412;8.790;2023-04-28T05:53:56;94521.25;;;10.26;100.00
68889;BME280;55930;47.412;8.790;2023-04-28T05:57:17;94511.81;;;10.25;100.00
68889;BME280;55930;47.412;8.790;2023-04-28T06:00:40;94503.66;;;10.14;100.00
68889;BME280;55930;47.412;8.790;2023-04-28T06:04:00;94490.09;;;10.21;100.00
68889;BME280;55930;47.412;8.790;2023-04-28T06:07:20;94497.66;;;10.28;100.00
68889;BME280;55930;47.412;8.790;2023-04-28T06:10:41;94495.63;;;10.23;100.00
68889;BME280;55930;47.412;8.790;2023-04-28T06:14:01;94512.72;;;10.22;100.00
68889;BME280;55930;47.412;8.790;2023-04-28T06:17:22;94526.38;;;10.29;100.00
68889;BME280;55930;47.412;8.790;2023-04-28T06:20:43;94530.03;;;10.32;100.00
68889;BME280;55930;47.412;8.790;2023-04-28T06:24:03;94520.97;;;10.24;100.00
68889;BME280;55930;47.412;8.790;2023-04-28T06:27:24;94515.78;;;10.29;100.00
68889;BME280;55930;47.412;8.790;2023-04-28T06:30:45;94515.28;;;10.31;100.00
68889;BME280;55930;47.412;8.790;2023-04-28T06:34:05;94518.78;;;10.37;100.00
68889;BME280;55930;47.412;8.790;2023-04-28T06:37:26;94507.97;;;10.41;100.00
68889;BME280;55930;47.412;8.790;2023-04-28T06:40:46;94490.69;;;10.30;100.00
68889;BME280;55930;47.412;8.790;2023-04-28T06:44:07;94492.06;;;10.55;100.00
68889;BME280;55930;47.412;8.790;2023-04-28T06:47:27;94495.53;;;10.47;100.00
68889;BME280;55930;47.412;8.790;2023-04-28T06:50:48;94485.94;;;10.49;100.00
68889;BME280;55930;47.412;8.790;2023-04-28T06:54:08;94484.69;;;10.45;100.00
68889;BME280;55930;47.412;8.790;2023-04-28T06:57:29;94471.88;;;10.43;100.00
68889;BME280;55930;47.412;8.790;2023-04-28T07:00:49;94472.84;;;10.46;100.00
68889;BME280;55930;47.412;8.790;2023-04-28T07:04:10;94477.34;;;10.54;100.00
68889;BME280;55930;47.412;8.790;2023-04-28T07:07:30;94475.41;;;10.55;100.00
68889;BME280;55930;47.412;8.790;2023-04-28T07:10:51;94473.34;;;10.79;100.00
68889;BME280;55930;47.412;8.790;2023-04-28T07:14:11;94490.19;;;11.11;100.00
68889;BME280;55930;47.412;8.790;2023-04-28T07:17:32;94474.34;;;11.17;100.00
68889;BME280;55930;47.412;8.790;2023-04-28T07:20:52;94481.09;;;11.18;100.00
68889;BME280;55930;47.412;8.790;2023-04-28T07:24:14;94462.81;;;11.40;100.00
68889;BME280;55930;47.412;8.790;2023-04-28T07:27:34;94473.94;;;11.64;100.00
68889;BME280;55930;47.412;8.790;2023-04-28T07:30:55;94460.59;;;11.79;100.00
68889;BME280;55930;47.412;8.790;2023-04-28T07:34:16;94460.38;;;11.82;100.00
68889;BME280;55930;47.412;8.790;2023-04-28T07:37:37;94463.84;;;11.88;100.00
68889;BME280;55930;47.412;8.790;2023-04-28T07:40:57;94461.44;;;11.91;100.00
68889;BME280;55930;47.412;8.790;2023-04-28T07:44:18;94466.00;;;12.42;100.00
68889;BME280;55930;47.412;8.790;2023-04-28T07:47:38;94475.91;;;12.15;100.00
68889;BME280;55930;47.412;8.790;2023-04-28T07:50:59;94487.75;;;11.88;100.00
68889;BME280;55930;47.412;8.790;2023-04-28T07:54:19;94485.31;;;11.65;100.00
68889;BME280;55930;47.412;8.790;2023-04-28T07:57:40;94489.22;;;11.69;100.00
68889;BME280;55930;47.412;8.790;2023-04-28T08:01:03;94479.22;;;11.79;100.00
68889;BME280;55930;47.412;8.790;2023-04-28T08:04:24;94486.16;;;11.97;100.00
68889;BME280;55930;47.412;8.790;2023-04-28T08:07:44;94497.13;;;11.84;100.00
68889;BME280;55930;47.412;8.790;2023-04-28T08:11:05;94501.25;;;11.65;100.00
68889;BME280;55930;47.412;8.790;2023-04-28T08:14:25;94500.31;;;11.47;100.00
68889;BME280;55930;47.412;8.790;2023-04-28T08:17:46;94503.84;;;11.39;100.00
68889;BME280;55930;47.412;8.790;2023-04-28T08:21:06;94515.09;;;11.34;100.00
68889;BME280;55930;47.412;8.790;2023-04-28T08:24:27;94510.34;;;11.38;100.00
68889;BME280;55930;47.412;8.790;2023-04-28T08:27:49;94524.41;;;11.24;100.00
68889;BME280;55930;47.412;8.790;2023-04-28T08:31:09;94524.13;;;11.22;100.00
68889;BME280;55930;47.412;8.790;2023-04-28T08:34:30;94530.84;;;11.37;100.00
68889;BME280;55930;47.412;8.790;2023-04-28T08:37:53;94523.56;;;11.52;100.00
68889;BME280;55930;47.412;8.790;2023-04-28T08:41:15;94523.84;;;11.95;100.00
68889;BME280;55930;47.412;8.790;2023-04-28T08:44:39;94520.31;;;12.04;100.00
68889;BME280;55930;47.412;8.790;2023-04-28T08:48:02;94525.66;;;12.09;100.00
68889;BME280;55930;47.412;8.790;2023-04-28T08:51:33;94530.88;;;11.98;100.00
68889;BME280;55930;47.412;8.790;2023-04-28T08:55:00;94529.75;;;11.84;100.00
68889;BME280;55930;47.412;8.790;2023-04-28T08:58:23;94544.38;;;11.95;100.00
68889;BME280;55930;47.412;8.790;2023-04-28T09:01:47;94543.19;;;11.96;100.00
68889;BME280;55930;47.412;8.790;2023-04-28T09:05:10;94549.13;;;11.70;100.00
68889;BME280;55930;47.412;8.790;2023-04-28T09:08:30;94541.75;;;12.00;100.00
68889;BME280;55930;47.412;8.790;2023-04-28T09:15:25;94540.06;;;12.23;100.00
68889;BME280;55930;47.412;8.790;2023-04-28T09:18:56;94541.81;;;12.06;100.00
68889;BME280;55930;47.412;8.790;2023-04-28T09:22:26;94545.56;;;11.94;100.00
68889;BME280;55930;47.412;8.790;2023-04-28T09:29:19;94543.38;;;11.72;100.00
68889;BME280;55930;47.412;8.790;2023-04-28T09:32:40;94546.56;;;11.76;100.00
68889;BME280;55930;47.412;8.790;2023-04-28T09:36:00;94548.28;;;11.99;100.00
68889;BME280;55930;47.412;8.790;2023-04-28T09:39:29;94545.69;;;12.05;100.00
68889;BME280;55930;47.412;8.790;2023-04-28T09:42:52;94553.88;;;12.01;100.00
68889;BME280;55930;47.412;8.790;2023-04-28T09:46:27;94565.41;;;11.98;100.00
68889;BME280;55930;47.412;8.790;2023-04-28T09:49:57;94565.28;;;12.07;100.00
68889;BME280;55930;47.412;8.790;2023-04-28T09:53:21;94554.09;;;12.23;100.00
68889;BME280;55930;47.412;8.790;2023-04-28T09:56:43;94564.69;;;11.98;100.00
68889;BME280;55930;47.412;8.790;2023-04-28T10:00:06;94557.56;;;12.09;100.00
68889;BME280;55930;47.412;8.790;2023-04-28T10:03:29;94569.63;;;11.84;100.00
68889;BME280;55930;47.412;8.790;2023-04-28T10:06:50;94559.13;;;11.96;100.00
68889;BME280;55930;47.412;8.790;2023-04-28T10:10:11;94560.59;;;11.97;100.00
68889;BME280;55930;47.412;8.790;2023-04-28T10:13:36;94563.13;;;11.85;100.00
68889;BME280;55930;47.412;8.790;2023-04-28T10:16:58;94558.44;;;12.01;100.00
68889;BME280;55930;47.412;8.790;2023-04-28T10:20:18;94565.91;;;11.97;100.00
68889;BME280;55930;47.412;8.790;2023-04-28T10:24:14;94562.56;;;11.81;100.00
68889;BME280;55930;47.412;8.790;2023-04-28T10:27:38;94573.16;;;11.76;100.00
68889;BME280;55930;47.412;8.790;2023-04-28T10:31:11;94571.25;;;11.62;100.00
68889;BME280;55930;47.412;8.790;2023-04-28T10:34:32;94564.13;;;11.88;100.00
68889;BME280;55930;47.412;8.790;2023-04-28T10:41:31;94562.94;;;11.89;100.00
68889;BME280;55930;47.412;8.790;2023-04-28T10:44:52;94560.06;;;11.93;100.00
68889;BME280;55930;47.412;8.790;2023-04-28T10:48:15;94570.31;;;11.79;100.00
68889;BME280;55930;47.412;8.790;2023-04-28T10:51:35;94568.16;;;11.83;100.00
68889;BME280;55930;47.412;8.790;2023-04-28T10:55:31;94570.94;;;12.15;100.00
68889;BME280;55930;47.412;8.790;2023-04-28T10:58:59;94572.97;;;12.25;100.00
68889;BME280;55930;47.412;8.790;2023-04-28T11:02:35;94561.31;;;12.43;100.00
68889;BME280;55930;47.412;8.790;2023-04-28T11:06:22;94561.66;;;12.56;100.00
68889;BME280;55930;47.412;8.790;2023-04-28T11:09:47;94554.88;;;12.87;100.00
68889;BME280;55930;47.412;8.790;2023-04-28T11:13:25;94557.69;;;13.09;100.00
68889;BME280;55930;47.412;8.790;2023-04-28T11:16:56;94560.84;;;13.08;100.00
68889;BME280;55930;47.412;8.790;2023-04-28T11:20:21;94562.09;;;13.12;100.00
68889;BME280;55930;47.412;8.790;2023-04-28T11:23:42;94562.16;;;13.18;100.00
68889;BME280;55930;47.412;8.790;2023-04-28T11:27:03;94560.31;;;12.98;100.00
68889;BME280;55930;47.412;8.790;2023-04-28T11:30:24;94556.94;;;13.03;100.00
68889;BME280;55930;47.412;8.790;2023-04-28T11:34:07;94554.84;;;12.81;100.00
68889;BME280;55930;47.412;8.790;2023-04-28T11:37:31;94562.25;;;13.03;100.00
68889;BME280;55930;47.412;8.790;2023-04-28T11:40:58;94564.41;;;13.30;100.00
68889;BME280;55930;47.412;8.790;2023-04-28T11:44:22;94557.56;;;13.61;100.00
68889;BME280;55930;47.412;8.790;2023-04-28T11:47:44;94555.63;;;13.61;100.00
68889;BME280;55930;47.412;8.790;2023-04-28T11:51:05;94552.09;;;13.01;100.00
68889;BME280;55930;47.412;8.790;2023-04-28T11:54:28;94546.44;;;13.25;100.00
68889;BME280;55930;47.412;8.790;2023-04-28T12:01:48;94551.09;;;13.78;100.00
68889;BME280;55930;47.412;8.790;2023-04-28T12:05:09;94556.06;;;13.49;100.00
68889;BME280;55930;47.412;8.790;2023-04-28T12:08:30;94549.84;;;13.74;100.00
68889;BME280;55930;47.412;8.790;2023-04-28T12:11:58;94557.19;;;13.36;100.00
68889;BME280;55930;47.412;8.790;2023-04-28T12:15:19;94555.44;;;13.82;100.00
68889;BME280;55930;47.412;8.790;2023-04-28T12:18:57;94553.16;;;13.52;100.00
68889;BME280;55930;47.412;8.790;2023-04-28T12:22:19;94551.56;;;13.83;100.00
68889;BME280;55930;47.412;8.790;2023-04-28T12:25:43;94544.94;;;13.56;100.00
68889;BME280;55930;47.412;8.790;2023-04-28T12:29:04;94552.78;;;13.33;100.00
68889;BME280;55930;47.412;8.790;2023-04-28T12:32:41;94551.53;;;13.23;100.00
68889;BME280;55930;47.412;8.790;2023-04-28T12:36:04;94550.28;;;13.19;100.00
68889;BME280;55930;47.412;8.790;2023-04-28T12:39:27;94552.41;;;13.52;100.00
68889;BME280;55930;47.412;8.790;2023-04-28T12:42:48;94549.13;;;13.73;100.00
68889;BME280;55930;47.412;8.790;2023-04-28T12:46:09;94549.91;;;13.31;100.00
68889;BME280;55930;47.412;8.790;2023-04-28T12:49:34;94553.59;;;13.45;100.00
68889;BME280;55930;47.412;8.790;2023-04-28T12:52:55;94553.06;;;13.35;100.00
68889;BME280;55930;47.412;8.790;2023-04-28T12:56:16;94554.59;;;13.53;100.00
68889;BME280;55930;47.412;8.790;2023-04-28T12:59:37;94548.00;;;13.06;100.00
68889;BME280;55930;47.412;8.790;2023-04-28T13:02:59;94553.94;;;13.21;100.00
68889;BME280;55930;47.412;8.790;2023-04-28T13:06:20;94552.41;;;13.46;100.00
68889;BME280;55930;47.412;8.790;2023-04-28T13:09:41;94548.34;;;13.56;100.00
68889;BME280;55930;47.412;8.790;2023-04-28T13:13:05;94541.38;;;13.81;100.00
68889;BME280;55930;47.412;8.790;2023-04-28T13:16:25;94539.50;;;13.98;100.00
68889;BME280;55930;47.412;8.790;2023-04-28T13:19:48;94523.81;;;14.17;100.00
68889;BME280;55930;47.412;8.790;2023-04-28T13:23:08;94518.97;;;14.27;100.00
68889;BME280;55930;47.412;8.790;2023-04-28T13:26:29;94510.78;;;14.52;100.00
68889;BME280;55930;47.412;8.790;2023-04-28T13:29:49;94518.28;;;14.54;100.00
68889;BME280;55930;47.412;8.790;2023-04-28T13:33:09;94523.22;;;13.79;100.00
68889;BME280;55930;47.412;8.790;2023-04-28T13:36:31;94506.53;;;13.96;100.00
68889;BME280;55930;47.412;8.790;2023-04-28T13:39:52;94504.53;;;13.74;100.00
68889;BME280;55930;47.412;8.790;2023-04-28T13:43:12;94491.78;;;14.11;100.00
68889;BME280;55930;47.412;8.790;2023-04-28T13:46:33;94492.44;;;13.90;100.00
68889;BME280;55930;47.412;8.790;2023-04-28T13:49:53;94494.22;;;14.32;100.00
68889;BME280;55930;47.412;8.790;2023-04-28T13:53:13;94491.34;;;14.35;100.00
68889;BME280;55930;47.412;8.790;2023-04-28T13:56:35;94481.66;;;14.49;100.00
68889;BME280;55930;47.412;8.790;2023-04-28T13:59:55;94480.69;;;14.74;100.00
68889;BME280;55930;47.412;8.790;2023-04-28T14:03:18;94475.81;;;14.78;100.00
68889;BME280;55930;47.412;8.790;2023-04-28T14:06:40;94473.16;;;14.67;100.00
68889;BME280;55930;47.412;8.790;2023-04-28T14:10:01;94472.91;;;14.82;100.00
68889;BME280;55930;47.412;8.790;2023-04-28T14:13:22;94469.03;;;14.66;100.00
68889;BME280;55930;47.412;8.790;2023-04-28T14:16:46;94467.56;;;14.48;100.00
68889;BME280;55930;47.412;8.790;2023-04-28T14:20:07;94467.09;;;14.55;100.00
68889;BME280;55930;47.412;8.790;2023-04-28T14:23:30;94467.78;;;14.78;100.00
68889;BME280;55930;47.412;8.790;2023-04-28T14:26:51;94455.91;;;14.63;100.00
68889;BME280;55930;47.412;8.790;2023-04-28T14:30:11;94454.56;;;15.25;100.00
68889;BME280;55930;47.412;8.790;2023-04-28T14:33:34;94457.75;;;15.23;100.00
68889;BME280;55930;47.412;8.790;2023-04-28T14:36:55;94460.88;;;15.27;100.00
68889;BME280;55930;47.412;8.790;2023-04-28T14:40:15;94463.44;;;15.72;100.00
68889;BME280;55930;47.412;8.790;2023-04-28T14:43:36;94463.09;;;15.29;100.00
68889;BME280;55930;47.412;8.790;2023-04-28T14:46:58;94465.38;;;14.91;100.00
68889;BME280;55930;47.412;8.790;2023-04-28T14:50:19;94465.16;;;14.67;100.00
68889;BME280;55930;47.412;8.790;2023-04-28T14:53:39;94457.13;;;14.78;100.00
68889;BME280;55930;47.412;8.790;2023-04-28T14:56:59;94439.34;;;15.03;100.00
68889;BME280;55930;47.412;8.790;2023-04-28T15:00:20;94437.69;;;14.89;100.00
68889;BME280;55930;47.412;8.790;2023-04-28T15:03:43;94437.47;;;14.76;100.00
68889;BME280;55930;47.412;8.790;2023-04-28T15:07:04;94439.91;;;14.68;100.00
68889;BME280;55930;47.412;8.790;2023-04-28T15:10:31;94440.88;;;14.65;100.00
68889;BME280;55930;47.412;8.790;2023-04-28T15:13:56;94434.09;;;14.59;100.00
68889;BME280;55930;47.412;8.790;2023-04-28T15:17:16;94432.88;;;14.60;100.00
68889;BME280;55930;47.412;8.790;2023-04-28T15:20:37;94421.22;;;14.35;100.00
68889;BME280;55930;47.412;8.790;2023-04-28T15:23:58;94416.84;;;14.32;100.00
68889;BME280;55930;47.412;8.790;2023-04-28T15:27:21;94413.44;;;14.31;100.00
68889;BME280;55930;47.412;8.790;2023-04-28T15:30:42;94415.38;;;14.14;100.00
68889;BME280;55930;47.412;8.790;2023-04-28T15:34:02;94407.88;;;14.12;100.00
68889;BME280;55930;47.412;8.790;2023-04-28T15:40:58;94407.13;;;14.29;100.00
68889;BME280;55930;47.412;8.790;2023-04-28T15:44:18;94400.09;;;14.14;100.00
68889;BME280;55930;47.412;8.790;2023-04-28T15:47:39;94384.59;;;14.02;100.00
68889;BME280;55930;47.412;8.790;2023-04-28T15:51:00;94379.72;;;14.00;100.00
68889;BME280;55930;47.412;8.790;2023-04-28T15:54:20;94379.50;;;14.04;100.00
68889;BME280;55930;47.412;8.790;2023-04-28T15:57:41;94377.06;;;14.11;100.00
68889;BME280;55930;47.412;8.790;2023-04-28T16:01:02;94382.66;;;14.02;100.00
68889;BME280;55930;47.412;8.790;2023-04-28T16:04:22;94379.97;;;14.13;100.00
68889;BME280;55930;47.412;8.790;2023-04-28T16:07:45;94378.28;;;14.33;100.00
68889;BME280;55930;47.412;8.790;2023-04-28T16:11:07;94370.47;;;14.63;100.00
68889;BME280;55930;47.412;8.790;2023-04-28T16:14:29;94362.53;;;14.40;100.00
68889;BME280;55930;47.412;8.790;2023-04-28T16:17:49;94360.56;;;14.13;100.00
68889;BME280;55930;47.412;8.790;2023-04-28T16:21:11;94362.50;;;14.07;100.00
68889;BME280;55930;47.412;8.790;2023-04-28T16:24:36;94361.53;;;13.99;100.00
68889;BME280;55930;47.412;8.790;2023-04-28T16:28:01;94363.00;;;13.89;100.00
68889;BME280;55930;47.412;8.790;2023-04-28T16:31:22;94359.38;;;13.81;100.00
68889;BME280;55930;47.412;8.790;2023-04-28T16:34:42;94357.19;;;13.79;100.00
68889;BME280;55930;47.412;8.790;2023-04-28T16:38:03;94347.97;;;13.69;100.00
68889;BME280;55930;47.412;8.790;2023-04-28T16:41:23;94344.31;;;13.61;100.00
68889;BME280;55930;47.412;8.790;2023-04-28T16:44:43;94350.13;;;13.54;100.00
68889;BME280;55930;47.412;8.790;2023-04-28T16:48:04;94364.19;;;13.54;100.00
68889;BME280;55930;47.412;8.790;2023-04-28T16:51:25;94373.13;;;13.40;100.00
68889;BME280;55930;47.412;8.790;2023-04-28T16:54:47;94357.56;;;13.27;100.00
68889;BME280;55930;47.412;8.790;2023-04-28T16:58:07;94364.34;;;13.28;100.00
68889;BME280;55930;47.412;8.790;2023-04-28T17:01:28;94380.81;;;13.27;100.00
68889;BME280;55930;47.412;8.790;2023-04-28T17:04:49;94387.31;;;13.20;100.00
68889;BME280;55930;47.412;8.790;2023-04-28T17:08:10;94359.22;;;13.14;100.00
68889;BME280;55930;47.412;8.790;2023-04-28T17:11:32;94390.94;;;13.17;100.00
68889;BME280;55930;47.412;8.790;2023-04-28T17:14:52;94404.22;;;13.12;100.00
68889;BME280;55930;47.412;8.790;2023-04-28T17:18:13;94427.19;;;13.09;100.00
68889;BME280;55930;47.412;8.790;2023-04-28T17:21:34;94433.22;;;13.04;100.00
68889;BME280;55930;47.412;8.790;2023-04-28T17:24:54;94418.00;;;13.10;100.00
68889;BME280;55930;47.412;8.790;2023-04-28T17:28:15;94419.72;;;13.08;100.00
68889;BME280;55930;47.412;8.790;2023-04-28T17:31:35;94395.25;;;13.09;100.00
68889;BME280;55930;47.412;8.790;2023-04-28T17:34:56;94404.94;;;13.07;100.00
68889;BME280;55930;47.412;8.790;2023-04-28T17:38:16;94386.78;;;13.11;100.00
68889;BME280;55930;47.412;8.790;2023-04-28T17:41:37;94374.91;;;13.12;100.00
68889;BME280;55930;47.412;8.790;2023-04-28T17:44:57;94382.75;;;13.26;100.00
68889;BME280;55930;47.412;8.790;2023-04-28T17:48:18;94386.19;;;13.38;100.00
68889;BME280;55930;47.412;8.790;2023-04-28T17:51:38;94405.78;;;13.35;100.00
68889;BME280;55930;47.412;8.790;2023-04-28T17:54:58;94410.38;;;13.29;100.00